Time;durP1;ratioP1;P1;durP2;ratioP2;P2;SDS_P1;SDS_P2;PMS_P1;PMS_P2;Temp;Humidity;BMP_temperature;BMP_pressure;BME280_temperature;BME280_humidity;BME280_pressure;Samples;Min_cycle;Max_cycle;Signal;HPM_P1;HPM_P2
2023/06/07 00:00:02;;;;;;;5.00;4.60;;;17.40;1.00;;;;;;5120891;28;20179;-48
2023/06/07 00:02:28;;;;;;;5.53;5.03;;;17.40;1.00;;;;;;5120240;28;20184;-48
2023/06/07 00:04:53;;;;;;;5.23;4.83;;;17.40;1.00;;;;;;5119948;28;20429;-51
2023/06/07 00:07:19;;;;;;;5.20;4.80;;;17.40;1.00;;;;;;5136441;27;20252;-48
2023/06/07 00:09:45;;;;;;;4.50;4.20;;;17.40;1.00;;;;;;5120404;27;20205;-52
2023/06/07 00:12:11;;;;;;;6.23;5.07;;;17.40;1.00;;;;;;5128332;27;20229;-49
2023/06/07 00:14:36;;;;;;;4.60;4.20;;;17.40;1.00;;;;;;5139697;27;20214;-47
2023/06/07 00:17:02;;;;;;;5.97;4.67;;;17.40;1.00;;;;;;5115146;28;20815;-47
2023/06/07 00:19:29;;;;;;;7.30;4.93;;;17.40;1.00;;;;;;5132636;27;20802;-46
2023/06/07 00:21:55;;;;;;;4.77;4.37;;;17.40;1.00;;;;;;5140148;27;20202;-48
2023/06/07 00:24:21;;;;;;;4.87;4.47;;;17.40;1.00;;;;;;5139865;27;20409;-49
2023/06/07 00:26:47;;;;;;;5.43;4.97;;;17.30;1.00;;;;;;5140570;27;20517;-49
2023/06/07 00:29:14;;;;;;;5.10;4.70;;;17.30;1.00;;;;;;5121778;27;20295;-49
2023/06/07 00:31:39;;;;;;;4.10;3.80;;;17.20;1.00;;;;;;5128789;27;20551;-49
2023/06/07 00:34:06;;;;;;;5.43;4.93;;;17.10;1.00;;;;;;5120237;27;20575;-49
2023/06/07 00:36:33;;;;;;;4.97;4.57;;;17.10;1.00;;;;;;5122298;27;20187;-46
2023/06/07 00:38:59;;;;;;;5.90;5.40;;;17.00;2.50;;;;;;5138881;27;20523;-47
2023/06/07 00:41:25;;;;;;;5.07;4.57;;;17.00;1.00;;;;;;5126103;27;20602;-47
2023/06/07 00:43:50;;;;;;;4.80;4.40;;;17.00;12.50;;;;;;5137434;27;20258;-51
2023/06/07 00:46:18;;;;;;;5.73;5.23;;;17.00;18.60;;;;;;5133020;27;20184;-48
2023/06/07 00:48:44;;;;;;;4.97;4.57;;;17.00;16.80;;;;;;5138529;27;20203;-49
2023/06/07 00:51:09;;;;;;;8.53;4.30;;;17.00;20.80;;;;;;5139979;27;20468;-48
2023/06/07 00:53:36;;;;;;;4.73;4.33;;;17.00;25.70;;;;;;5139905;27;20425;-50
2023/06/07 00:56:02;;;;;;;4.73;4.33;;;17.00;21.30;;;;;;5121663;27;20187;-48
2023/06/07 00:58:28;;;;;;;5.43;4.93;;;16.90;15.20;;;;;;5138922;27;20911;-47
2023/06/07 01:00:54;;;;;;;5.07;4.73;;;16.90;27.30;;;;;;5118418;27;20421;-51
2023/06/07 01:03:23;;;;;;;4.80;4.50;;;16.90;33.80;;;;;;5099891;28;20271;-49
2023/06/07 01:05:50;;;;;;;8.10;4.90;;;16.80;48.60;;;;;;5117999;28;20505;-48
2023/06/07 01:08:15;;;;;;;5.40;5.00;;;16.80;41.50;;;;;;5099936;28;20533;-48
2023/06/07 01:10:41;;;;;;;7.00;5.47;;;16.80;52.90;;;;;;5118243;28;20873;-47
2023/06/07 01:13:07;;;;;;;4.47;4.10;;;16.70;66.10;;;;;;5100592;28;20441;-50
2023/06/07 01:15:33;;;;;;;5.83;5.33;;;16.60;92.60;;;;;;5117507;28;20180;-50
2023/06/07 01:17:59;;;;;;;4.83;4.23;;;16.60;99.90;;;;;;5118327;28;20796;-48
2023/06/07 01:20:25;;;;;;;5.60;5.10;;;16.60;99.90;;;;;;5118869;27;20184;-47
2023/06/07 01:22:56;;;;;;;5.10;4.70;;;16.50;99.90;;;;;;5118346;28;20192;-47
2023/06/07 01:25:22;;;;;;;4.77;4.37;;;16.50;99.90;;;;;;5111527;27;20444;-49
2023/06/07 01:27:50;;;;;;;5.73;4.93;;;16.50;99.90;;;;;;5139752;27;20421;-48
2023/06/07 01:30:16;;;;;;;5.77;5.17;;;16.50;99.90;;;;;;5120929;27;20427;-47
2023/06/07 01:32:42;;;;;;;5.00;4.60;;;16.50;99.90;;;;;;5124586;27;20434;-47
2023/06/07 01:35:09;;;;;;;4.87;4.53;;;16.50;99.90;;;;;;5100328;28;20528;-48
2023/06/07 01:37:35;;;;;;;6.07;5.50;;;16.50;99.90;;;;;;5100694;28;20188;-46
2023/06/07 01:40:01;;;;;;;5.67;5.20;;;16.50;99.90;;;;;;5100406;28;20944;-47
2023/06/07 01:42:27;;;;;;;4.80;4.40;;;16.50;99.90;;;;;;5110012;28;20474;-47
2023/06/07 01:44:53;;;;;;;7.73;5.03;;;16.50;99.90;;;;;;5080075;28;20433;-48
2023/06/07 01:47:19;;;;;;;4.73;4.20;;;16.50;99.90;;;;;;5098794;28;20774;-48
2023/06/07 01:49:44;;;;;;;5.90;4.90;;;16.50;99.90;;;;;;5079694;28;20434;-50
2023/06/07 01:52:10;;;;;;;5.60;5.20;;;16.50;99.90;;;;;;5098073;28;20590;-48
2023/06/07 01:54:37;;;;;;;5.03;4.60;;;16.50;99.90;;;;;;5080275;28;20251;-48
2023/06/07 01:57:09;;;;;;;5.97;5.37;;;16.40;99.90;;;;;;5085571;28;20184;-49
2023/06/07 01:59:53;;;;;;;5.33;4.93;;;16.40;99.90;;;;;;5118276;28;20426;-49
2023/06/07 02:02:48;;;;;;;5.80;5.30;;;16.30;99.90;;;;;;5117869;28;20449;-47
2023/06/07 02:05:20;;;;;;;5.27;4.77;;;16.20;99.90;;;;;;5096002;28;20532;-48
2023/06/07 02:07:49;;;;;;;5.83;5.33;;;16.20;99.90;;;;;;5100239;28;20433;-47
2023/06/07 02:10:25;;;;;;;5.40;5.00;;;16.20;99.90;;;;;;5099731;28;20896;-48
2023/06/07 02:12:54;;;;;;;5.50;5.00;;;16.20;99.90;;;;;;5096008;28;20458;-47
2023/06/07 02:15:23;;;;;;;5.20;4.80;;;16.20;99.90;;;;;;5080524;28;20796;-48
2023/06/07 02:18:01;;;;;;;5.80;5.30;;;16.10;99.90;;;;;;5097854;28;20434;-47
2023/06/07 02:20:31;;;;;;;5.57;5.07;;;16.10;99.90;;;;;;5097406;28;20414;-51
2023/06/07 02:22:57;;;;;;;5.27;4.47;;;16.10;99.90;;;;;;5097128;28;20893;-48
2023/06/07 02:25:24;;;;;;;5.73;5.23;;;16.00;99.90;;;;;;5097393;28;20411;-46
2023/06/07 02:27:49;;;;;;;4.80;4.40;;;16.00;99.90;;;;;;5097405;28;20419;-47
2023/06/07 02:30:15;;;;;;;5.73;4.90;;;16.00;99.90;;;;;;5097475;28;20426;-47
2023/06/07 02:32:45;;;;;;;5.30;4.90;;;16.00;99.90;;;;;;5097196;28;20188;-47
2023/06/07 02:35:11;;;;;;;5.30;4.90;;;16.00;99.90;;;;;;5096670;28;20458;-46
2023/06/07 02:37:36;;;;;;;5.40;5.00;;;16.00;99.90;;;;;;5096891;28;20430;-49
2023/06/07 02:40:05;;;;;;;5.77;5.37;;;16.00;99.90;;;;;;5097101;28;20407;-49
2023/06/07 02:42:31;;;;;;;4.97;4.57;;;15.90;99.90;;;;;;5080899;28;20224;-47
2023/06/07 02:44:56;;;;;;;5.83;5.30;;;15.90;99.90;;;;;;5133978;27;20856;-46
2023/06/07 02:47:22;;;;;;;5.90;5.40;;;15.90;99.90;;;;;;5136907;27;20190;-46
2023/06/07 02:49:48;;;;;;;5.00;4.60;;;15.90;99.90;;;;;;5117029;28;20199;-47
2023/06/07 02:52:13;;;;;;;8.00;6.10;;;15.80;99.90;;;;;;5117464;28;20592;-47
2023/06/07 02:54:39;;;;;;;5.83;5.33;;;15.80;99.90;;;;;;5118253;28;20462;-47
2023/06/07 02:57:07;;;;;;;6.50;5.20;;;15.80;99.90;;;;;;5137494;28;20182;-47
2023/06/07 02:59:33;;;;;;;5.63;5.13;;;15.80;99.90;;;;;;5129065;28;20796;-49
2023/06/07 03:01:58;;;;;;;5.50;5.10;;;15.70;99.90;;;;;;5116995;28;20516;-48
2023/06/07 03:04:26;;;;;;;5.37;4.87;;;15.70;99.90;;;;;;5116827;28;20203;-48
2023/06/07 03:06:53;;;;;;;5.47;5.00;;;15.60;99.90;;;;;;5116333;28;20179;-50
2023/06/07 03:09:19;;;;;;;5.77;5.30;;;15.60;99.90;;;;;;5117455;28;20422;-48
2023/06/07 03:11:45;;;;;;;5.53;5.03;;;15.60;99.90;;;;;;5120023;28;20533;-46
2023/06/07 03:14:10;;;;;;;7.13;4.97;;;15.50;99.90;;;;;;5136805;28;20432;-48
2023/06/07 03:16:36;;;;;;;5.70;5.20;;;15.50;99.90;;;;;;5122741;28;20288;-49
2023/06/07 03:19:02;;;;;;;5.63;5.20;;;15.50;1.00;;;;;;5114379;28;20172;-48
2023/06/07 03:21:28;;;;;;;5.67;5.20;;;15.40;1.00;;;;;;5115693;28;20184;-48
2023/06/07 03:23:53;;;;;;;7.00;5.67;;;15.50;1.00;;;;;;5117149;28;20184;-50
2023/06/07 03:26:19;;;;;;;5.83;5.33;;;15.50;1.00;;;;;;5119920;28;20449;-48
2023/06/07 03:28:45;;;;;;;6.07;5.57;;;15.50;1.00;;;;;;5117887;28;20180;-49
2023/06/07 03:31:11;;;;;;;5.67;5.27;;;15.50;1.00;;;;;;5117189;28;20453;-49
2023/06/07 03:33:36;;;;;;;6.17;5.67;;;15.50;1.00;;;;;;5118095;28;20271;-49
2023/06/07 03:36:07;;;;;;;6.07;5.57;;;15.50;1.00;;;;;;5117696;28;20251;-47
2023/06/07 03:38:32;;;;;;;5.57;5.00;;;15.50;99.90;;;;;;5117644;28;20172;-46
2023/06/07 03:40:58;;;;;;;10.53;6.03;;;15.50;99.90;;;;;;5132208;27;20440;-47
2023/06/07 03:43:23;;;;;;;5.87;5.27;;;15.40;99.90;;;;;;5117259;28;20243;-47
2023/06/07 03:45:49;;;;;;;5.93;5.10;;;15.40;99.90;;;;;;5119837;28;20180;-46
2023/06/07 03:48:15;;;;;;;5.93;5.33;;;15.40;1.00;;;;;;5120206;28;20190;-49
2023/06/07 03:50:40;;;;;;;7.57;5.87;;;15.40;1.00;;;;;;5120105;28;20305;-46
2023/06/07 03:53:06;;;;;;;7.00;5.60;;;15.40;1.00;;;;;;5119654;28;20564;-47
2023/06/07 03:55:33;;;;;;;6.10;5.53;;;15.40;1.00;;;;;;5119261;28;20523;-47
2023/06/07 03:57:59;;;;;;;7.10;5.43;;;15.40;1.00;;;;;;5119433;28;20272;-47
2023/06/07 04:00:27;;;;;;;5.60;5.10;;;15.40;99.90;;;;;;5119164;28;20515;-49
2023/06/07 04:02:53;;;;;;;5.43;5.03;;;15.50;99.90;;;;;;5118374;28;20516;-50
2023/06/07 04:05:19;;;;;;;6.00;5.50;;;15.50;99.90;;;;;;5119598;28;20425;-50
2023/06/07 04:07:47;;;;;;;6.10;5.60;;;15.40;99.90;;;;;;5100268;28;20445;-49
2023/06/07 04:10:13;;;;;;;5.90;5.40;;;15.50;99.90;;;;;;5118292;28;20167;-48
2023/06/07 04:12:43;;;;;;;6.33;5.83;;;15.50;99.90;;;;;;5118376;28;20421;-48
2023/06/07 04:15:09;;;;;;;6.57;5.97;;;15.50;99.90;;;;;;5100903;28;20425;-46
2023/06/07 04:17:34;;;;;;;6.23;5.73;;;15.50;99.90;;;;;;5118844;28;20689;-46
2023/06/07 04:20:00;;;;;;;6.47;5.93;;;15.50;99.90;;;;;;5118809;28;20461;-48
2023/06/07 04:22:26;;;;;;;6.30;5.37;;;15.50;99.90;;;;;;5099212;28;20549;-49
2023/06/07 04:24:51;;;;;;;6.50;5.90;;;15.50;99.90;;;;;;5117165;28;20184;-49
2023/06/07 04:27:18;;;;;;;7.97;5.57;;;15.60;1.00;;;;;;5118469;28;20264;-48
2023/06/07 04:29:49;;;;;;;6.40;5.80;;;15.60;1.00;;;;;;5117913;28;20437;-47
2023/06/07 04:32:18;;;;;;;6.00;5.40;;;15.70;99.90;;;;;;5117075;28;20204;-48
2023/06/07 04:34:45;;;;;;;7.53;6.57;;;15.70;99.90;;;;;;5117797;28;20713;-48
2023/06/07 04:37:12;;;;;;;6.30;5.77;;;15.80;99.90;;;;;;5116871;28;20490;-48
2023/06/07 04:39:40;;;;;;;7.17;6.50;;;15.90;99.90;;;;;;5116635;28;20479;-47
2023/06/07 04:42:07;;;;;;;6.33;5.73;;;15.90;99.90;;;;;;5121756;27;20495;-48
2023/06/07 04:44:36;;;;;;;6.83;6.23;;;16.00;99.90;;;;;;5137624;27;20613;-49
2023/06/07 04:47:03;;;;;;;5.50;5.00;;;16.00;99.90;;;;;;5137908;27;20471;-49
2023/06/07 04:49:28;;;;;;;6.23;5.73;;;16.10;99.90;;;;;;5138544;27;20520;-49
2023/06/07 04:51:55;;;;;;;7.00;6.40;;;16.20;99.90;;;;;;5137783;27;20544;-47
2023/06/07 04:54:20;;;;;;;6.10;5.60;;;16.20;99.90;;;;;;5137362;27;20202;-48
2023/06/07 04:56:46;;;;;;;6.13;5.63;;;16.30;99.90;;;;;;5138059;27;20683;-47
2023/06/07 04:59:14;;;;;;;6.67;6.00;;;16.40;99.90;;;;;;5137898;27;20191;-48
2023/06/07 05:01:41;;;;;;;6.47;5.87;;;16.50;99.90;;;;;;5124518;27;20441;-48
2023/06/07 05:04:06;;;;;;;6.17;5.57;;;16.50;99.90;;;;;;5127460;27;20429;-47
2023/06/07 05:06:37;;;;;;;5.93;5.37;;;16.60;99.90;;;;;;5132774;27;20444;-48
2023/06/07 05:09:03;;;;;;;5.77;5.30;;;16.60;99.90;;;;;;5135245;27;20433;-48
2023/06/07 05:11:29;;;;;;;5.73;5.23;;;16.70;99.90;;;;;;5135146;27;20580;-49
2023/06/07 05:13:54;;;;;;;6.20;5.70;;;16.70;99.90;;;;;;5115257;27;20535;-48
2023/06/07 05:16:20;;;;;;;7.17;6.47;;;16.80;99.90;;;;;;5114738;28;20766;-47
2023/06/07 05:18:46;;;;;;;6.70;6.13;;;16.80;99.90;;;;;;5116026;28;20584;-47
2023/06/07 05:21:13;;;;;;;6.30;5.80;;;16.70;99.90;;;;;;5116916;28;20773;-49
2023/06/07 05:23:40;;;;;;;5.90;5.40;;;16.80;99.90;;;;;;5117362;28;20806;-44
2023/06/07 05:26:05;;;;;;;5.80;5.30;;;16.80;99.90;;;;;;5116985;28;20460;-51
2023/06/07 05:28:31;;;;;;;6.60;6.10;;;17.00;99.90;;;;;;5117692;27;20940;-46
2023/06/07 05:30:58;;;;;;;5.90;5.50;;;17.10;99.90;;;;;;5136882;27;20221;-46
2023/06/07 05:33:25;;;;;;;7.50;5.50;;;17.20;99.80;;;;;;5129222;27;20213;-47
2023/06/07 05:35:51;;;;;;;7.00;6.40;;;17.30;87.50;;;;;;5116642;28;20432;-46
2023/06/07 05:38:16;;;;;;;6.20;5.60;;;17.50;75.70;;;;;;5116708;28;20818;-45
2023/06/07 05:40:42;;;;;;;7.47;6.77;;;17.50;61.50;;;;;;5116793;28;20228;-46
2023/06/07 05:43:08;;;;;;;7.00;6.30;;;17.60;48.70;;;;;;5115646;28;20232;-49
2023/06/07 05:45:33;;;;;;;6.50;5.90;;;17.70;40.10;;;;;;5116769;28;20184;-46
2023/06/07 05:47:59;;;;;;;6.67;6.07;;;17.80;26.70;;;;;;5116854;28;20275;-47
2023/06/07 05:50:25;;;;;;;6.27;5.67;;;17.90;23.00;;;;;;5117330;28;20452;-48
2023/06/07 05:52:56;;;;;;;6.93;5.80;;;18.00;15.60;;;;;;5117111;28;20257;-45
2023/06/07 05:55:23;;;;;;;6.47;5.83;;;18.20;5.00;;;;;;5131846;27;20424;-47
2023/06/07 05:57:49;;;;;;;6.43;5.93;;;18.30;1.00;;;;;;5137320;27;20815;-50
2023/06/07 06:00:16;;;;;;;8.10;6.10;;;18.40;1.00;;;;;;5116296;28;20429;-50
2023/06/07 06:02:45;;;;;;;6.00;5.50;;;18.60;1.00;;;;;;5116470;28;20421;-47
2023/06/07 06:05:30;;;;;;;6.03;5.53;;;18.60;1.00;;;;;;5115916;28;20818;-46
2023/06/07 06:07:57;;;;;;;7.83;7.03;;;18.70;1.00;;;;;;5097554;28;20463;-50
2023/06/07 06:10:23;;;;;;;6.23;5.67;;;18.70;1.00;;;;;;5114374;28;20421;-48
2023/06/07 06:12:49;;;;;;;6.27;5.67;;;18.80;1.00;;;;;;5114344;28;20418;-48
2023/06/07 06:15:14;;;;;;;6.23;5.40;;;18.80;1.00;;;;;;5114127;28;20445;-47
2023/06/07 06:17:40;;;;;;;6.60;6.00;;;18.90;1.00;;;;;;5113879;28;20266;-48
2023/06/07 06:20:07;;;;;;;5.97;5.30;;;19.00;1.00;;;;;;5114144;28;20442;-47
2023/06/07 06:22:33;;;;;;;6.80;6.20;;;19.30;1.00;;;;;;5115212;27;20203;-49
2023/06/07 06:24:59;;;;;;;6.80;6.20;;;19.40;1.00;;;;;;5114453;28;20460;-48
2023/06/07 06:27:25;;;;;;;5.60;5.20;;;19.50;1.00;;;;;;5126575;27;20195;-51
2023/06/07 06:29:50;;;;;;;6.03;5.50;;;19.60;1.00;;;;;;5133942;27;20432;-50
2023/06/07 06:32:16;;;;;;;7.00;6.30;;;19.70;1.00;;;;;;5133219;27;20222;-49
2023/06/07 06:34:44;;;;;;;6.40;5.80;;;19.90;1.00;;;;;;5132607;27;20191;-51
2023/06/07 06:37:09;;;;;;;7.20;5.93;;;20.00;1.00;;;;;;5134362;27;20629;-48
2023/06/07 06:39:35;;;;;;;6.73;6.07;;;20.10;1.00;;;;;;5124942;27;20523;-47
2023/06/07 06:42:01;;;;;;;6.40;5.90;;;20.20;1.00;;;;;;5136386;27;20313;-51
2023/06/07 06:44:27;;;;;;;6.13;4.93;;;20.20;1.00;;;;;;5136646;27;20259;-51
2023/06/07 06:46:53;;;;;;;5.97;5.50;;;20.20;1.00;;;;;;5136318;27;20433;-48
2023/06/07 06:49:18;;;;;;;13.83;5.40;;;20.20;1.00;;;;;;5135843;27;20266;-47
2023/06/07 06:51:45;;;;;;;4.97;4.33;;;20.30;1.00;;;;;;5118583;28;20479;-52
2023/06/07 06:54:11;;;;;;;5.80;5.30;;;20.60;1.00;;;;;;5115112;28;20218;-48
2023/06/07 06:56:37;;;;;;;5.50;5.00;;;20.70;1.00;;;;;;5115761;28;20425;-48
2023/06/07 06:59:03;;;;;;;5.70;5.20;;;20.90;1.00;;;;;;5115994;28;20943;-52
2023/06/07 07:01:43;;;;;;;5.50;5.00;;;21.10;1.00;;;;;;5120689;28;20188;-47
2023/06/07 07:04:08;;;;;;;5.00;4.60;;;21.20;1.00;;;;;;5120713;28;20179;-48
2023/06/07 07:06:34;;;;;;;6.53;4.70;;;21.40;1.00;;;;;;5121576;28;20516;-47
2023/06/07 07:09:00;;;;;;;5.80;5.30;;;21.70;1.00;;;;;;5122015;28;20430;-48
2023/06/07 07:11:26;;;;;;;5.47;4.97;;;21.90;1.00;;;;;;5122021;28;21089;-48
2023/06/07 07:13:52;;;;;;;5.10;4.60;;;22.00;1.00;;;;;;5103765;28;20193;-47
2023/06/07 07:16:17;;;;;;;6.47;5.63;;;22.20;1.00;;;;;;5122462;27;20187;-48
2023/06/07 07:18:43;;;;;;;5.03;4.67;;;22.20;1.00;;;;;;5121618;28;20505;-47
2023/06/07 07:21:08;;;;;;;5.03;4.70;;;22.20;1.00;;;;;;5138000;27;20191;-48
2023/06/07 07:23:34;;;;;;;4.77;4.37;;;22.10;1.00;;;;;;5142202;27;20251;-49
2023/06/07 07:26:00;;;;;;;4.30;3.83;;;21.80;1.00;;;;;;5140877;27;20259;-47
2023/06/07 07:28:25;;;;;;;4.33;4.03;;;21.90;1.00;;;;;;5141552;27;20175;-48
2023/06/07 07:30:51;;;;;;;5.20;4.70;;;22.10;1.00;;;;;;5141975;27;20243;-47
2023/06/07 07:33:17;;;;;;;5.10;4.60;;;22.30;1.00;;;;;;5141765;27;20187;-47
2023/06/07 07:35:42;;;;;;;5.37;4.40;;;22.40;1.00;;;;;;5142909;27;20183;-48
2023/06/07 07:38:08;;;;;;;5.17;4.67;;;22.70;1.00;;;;;;5141874;27;20461;-49
2023/06/07 07:40:33;;;;;;;4.87;4.03;;;23.00;1.00;;;;;;5141236;27;20174;-50
2023/06/07 07:42:59;;;;;;;4.60;4.20;;;23.20;1.00;;;;;;5139951;27;20324;-51
2023/06/07 07:45:25;;;;;;;4.77;4.37;;;23.40;1.00;;;;;;5121739;27;20226;-51
2023/06/07 07:47:51;;;;;;;5.30;4.90;;;23.60;1.00;;;;;;5122227;28;20206;-50
2023/06/07 07:50:17;;;;;;;5.20;4.70;;;23.70;1.00;;;;;;5121187;28;20842;-49
2023/06/07 07:52:44;;;;;;;6.17;3.97;;;23.50;1.00;;;;;;5120213;27;20546;-50
2023/06/07 07:55:10;;;;;;;4.63;4.33;;;23.50;1.00;;;;;;5126798;27;20193;-49
2023/06/07 07:57:35;;;;;;;4.80;4.20;;;23.70;1.00;;;;;;5142144;27;20927;-47
2023/06/07 08:00:01;;;;;;;4.20;3.80;;;23.90;1.00;;;;;;5140877;27;20483;-48
2023/06/07 08:02:27;;;;;;;4.60;4.20;;;24.20;1.00;;;;;;5140856;27;20297;-50
2023/06/07 08:04:53;;;;;;;5.60;3.70;;;24.40;1.00;;;;;;5140606;27;20179;-47
2023/06/07 08:07:19;;;;;;;4.83;4.43;;;24.60;1.00;;;;;;5141539;27;20174;-48
2023/06/07 08:09:45;;;;;;;4.50;4.20;;;24.90;1.00;;;;;;5139892;27;20423;-50
2023/06/07 08:12:10;;;;;;;4.93;4.53;;;25.20;1.00;;;;;;5127910;27;20465;-48
2023/06/07 08:14:36;;;;;;;4.40;4.10;;;25.30;1.00;;;;;;5117235;28;20183;-49
2023/06/07 08:17:02;;;;;;;5.00;4.50;;;25.40;1.00;;;;;;5130220;27;20282;-47
2023/06/07 08:19:27;;;;;;;4.63;4.33;;;25.40;1.00;;;;;;5137637;27;20210;-49
2023/06/07 08:21:53;;;;;;;4.43;4.03;;;25.30;1.00;;;;;;5137485;27;20182;-51
2023/06/07 08:24:19;;;;;;;5.57;5.07;;;25.30;1.00;;;;;;5137686;27;20450;-47
2023/06/07 08:26:45;;;;;;;4.50;4.20;;;25.50;1.00;;;;;;5137100;27;20195;-49
2023/06/07 08:29:11;;;;;;;5.13;4.70;;;25.60;1.00;;;;;;5136813;27;20285;-49
2023/06/07 08:31:41;;;;;;;4.43;4.13;;;25.70;1.00;;;;;;5137323;27;20558;-48
2023/06/07 08:34:07;;;;;;;5.50;5.10;;;25.90;1.00;;;;;;5137414;27;20183;-47
2023/06/07 08:36:33;;;;;;;5.17;4.77;;;26.20;1.00;;;;;;5136846;27;20429;-51
2023/06/07 08:39:00;;;;;;;4.73;4.40;;;26.40;1.00;;;;;;5137725;27;20498;-50
2023/06/07 08:41:27;;;;;;;4.60;4.17;;;26.50;1.00;;;;;;5138347;27;20425;-51
2023/06/07 08:43:53;;;;;;;4.90;4.60;;;26.60;1.00;;;;;;5137283;27;20480;-47
2023/06/07 08:46:23;;;;;;;4.67;4.30;;;26.50;1.00;;;;;;5136852;27;20421;-49
2023/06/07 08:48:49;;;;;;;5.40;4.90;;;26.30;1.00;;;;;;5136675;27;20261;-48
2023/06/07 08:51:15;;;;;;;4.70;4.30;;;26.50;1.00;;;;;;5118738;27;20550;-48
2023/06/07 08:53:50;;;;;;;5.40;5.00;;;26.90;1.00;;;;;;5137052;27;20989;-48
2023/06/07 08:56:16;;;;;;;5.50;5.00;;;27.30;1.00;;;;;;5119104;27;20513;-49
2023/06/07 08:58:42;;;;;;;4.80;4.40;;;27.60;1.00;;;;;;5118680;27;20432;-52
2023/06/07 09:01:08;;;;;;;6.93;4.73;;;28.00;1.00;;;;;;5136749;27;20417;-48
2023/06/07 09:03:33;;;;;;;4.97;4.43;;;27.90;1.00;;;;;;5137705;27;20222;-49
2023/06/07 09:06:00;;;;;;;5.50;5.00;;;27.80;1.00;;;;;;5137702;27;20191;-49
2023/06/07 09:08:27;;;;;;;4.93;4.53;;;27.60;1.00;;;;;;5136792;27;20198;-47
2023/06/07 09:10:53;;;;;;;5.00;4.50;;;27.30;1.00;;;;;;5136095;27;20460;-47
2023/06/07 09:13:21;;;;;;;4.47;4.07;;;27.00;1.00;;;;;;5120171;27;20489;-50
2023/06/07 09:15:49;;;;;;;5.63;5.13;;;26.70;1.00;;;;;;5120124;27;20436;-50
2023/06/07 09:18:15;;;;;;;5.83;4.40;;;26.60;1.00;;;;;;5137411;27;20431;-48
2023/06/07 09:20:40;;;;;;;5.03;4.63;;;26.50;1.00;;;;;;5137460;27;20424;-49
2023/06/07 09:23:08;;;;;;;5.00;4.50;;;26.60;1.00;;;;;;5136524;27;20718;-50
2023/06/07 09:25:37;;;;;;;5.00;4.47;;;26.70;1.00;;;;;;5137921;27;20256;-48
2023/06/07 09:28:03;;;;;;;5.67;5.20;;;26.80;1.00;;;;;;5136652;27;20413;-48
2023/06/07 09:30:29;;;;;;;5.63;5.20;;;27.00;1.00;;;;;;5137391;27;20468;-49
2023/06/07 09:32:54;;;;;;;6.00;5.40;;;26.80;1.00;;;;;;5137967;27;20472;-50
2023/06/07 09:35:20;;;;;;;6.13;5.57;;;26.70;1.00;;;;;;5137341;27;20217;-49
2023/06/07 09:37:59;;;;;;;5.13;4.70;;;27.00;1.00;;;;;;5136148;27;20195;-50
2023/06/07 09:40:24;;;;;;;4.23;3.93;;;27.40;1.00;;;;;;5134729;27;20716;-49
2023/06/07 09:42:58;;;;;;;5.00;4.60;;;27.60;1.00;;;;;;5135719;27;20499;-48
2023/06/07 09:45:25;;;;;;;4.53;4.13;;;27.50;1.00;;;;;;5117725;27;20179;-50
2023/06/07 09:48:04;;;;;;;4.97;4.53;;;27.10;1.00;;;;;;5125317;27;20510;-49
2023/06/07 09:50:30;;;;;;;4.87;4.57;;;26.70;1.00;;;;;;5132619;27;20445;-47
2023/06/07 09:52:57;;;;;;;6.63;5.10;;;26.20;1.00;;;;;;5134981;27;21001;-49
2023/06/07 09:55:28;;;;;;;5.77;5.27;;;25.90;1.00;;;;;;5134961;27;20516;-46
2023/06/07 09:57:53;;;;;;;5.33;4.83;;;25.20;1.00;;;;;;5135460;27;20508;-49
2023/06/07 10:00:20;;;;;;;5.10;4.70;;;24.90;1.00;;;;;;5133940;27;20543;-49
2023/06/07 10:02:47;;;;;;;5.83;5.00;;;24.80;1.00;;;;;;5115700;27;20587;-48
2023/06/07 10:05:14;;;;;;;4.63;4.33;;;24.70;1.00;;;;;;5116049;27;20531;-48
2023/06/07 10:07:43;;;;;;;4.87;4.50;;;25.10;1.00;;;;;;5135222;27;20429;-47
2023/06/07 10:10:11;;;;;;;5.20;4.67;;;25.80;1.00;;;;;;5134018;27;20422;-51
2023/06/07 10:12:42;;;;;;;5.90;5.30;;;26.60;1.00;;;;;;5134240;27;20568;-48
2023/06/07 10:15:11;;;;;;;6.07;4.37;;;27.50;1.00;;;;;;5134989;27;20427;-48
2023/06/07 10:17:55;;;;;;;4.87;4.53;;;28.00;1.00;;;;;;5135629;27;20521;-48
2023/06/07 10:20:30;;;;;;;4.83;4.40;;;28.50;1.00;;;;;;5135089;27;20706;-53
2023/06/07 10:23:01;;;;;;;4.57;4.17;;;29.10;1.00;;;;;;5135195;27;20938;-48
2023/06/07 10:25:32;;;;;;;4.97;4.33;;;28.90;1.00;;;;;;5137028;27;20490;-49
2023/06/07 10:28:16;;;;;;;5.07;4.57;;;28.20;1.00;;;;;;5116760;27;20427;-49
2023/06/07 10:30:53;;;;;;;7.33;4.73;;;27.70;1.00;;;;;;5099331;27;20435;-49
2023/06/07 10:33:20;;;;;;;4.90;4.50;;;27.20;1.00;;;;;;5116491;28;20504;-48
2023/06/07 10:35:46;;;;;;;4.60;4.20;;;27.10;1.00;;;;;;5135198;27;20497;-51
2023/06/07 10:38:13;;;;;;;5.67;4.27;;;27.50;1.00;;;;;;5116498;27;20425;-51
2023/06/07 10:40:39;;;;;;;4.90;4.50;;;28.10;1.00;;;;;;5133936;27;21056;-59
2023/06/07 10:43:04;;;;;;;7.43;4.97;;;29.00;1.00;;;;;;5117336;27;20544;-58
2023/06/07 10:45:30;;;;;;;4.70;4.20;;;29.70;1.00;;;;;;5137007;27;20670;-58
2023/06/07 10:47:56;;;;;;;5.30;4.80;;;30.40;1.00;;;;;;5118248;28;20620;-59
2023/06/07 10:50:27;;;;;;;5.80;5.10;;;30.90;1.00;;;;;;5135630;27;20190;-58
2023/06/07 10:53:02;;;;;;;4.73;4.33;;;31.20;1.00;;;;;;5136556;27;20198;-58
2023/06/07 10:55:32;;;;;;;6.20;5.00;;;31.50;1.00;;;;;;5101500;28;20420;-58
2023/06/07 10:57:58;;;;;;;5.53;4.80;;;31.70;1.00;;;;;;5136474;28;20401;-58
2023/06/07 11:00:35;;;;;;;4.60;4.20;;;31.70;1.00;;;;;;5135446;28;20416;-59
2023/06/07 11:03:08;;;;;;;4.40;4.10;;;31.60;1.00;;;;;;5117359;28;20432;-57
2023/06/07 11:05:52;;;;;;;4.13;3.80;;;31.20;1.00;;;;;;5135098;28;20460;-58
2023/06/07 11:08:26;;;;;;;4.77;4.30;;;30.40;1.00;;;;;;5135595;28;20383;-57
2023/06/07 11:10:52;;;;;;;4.70;4.30;;;29.60;1.00;;;;;;5117561;28;20585;-58
2023/06/07 11:13:17;;;;;;;4.10;3.80;;;29.20;1.00;;;;;;5137047;28;20421;-58
2023/06/07 11:15:43;;;;;;;4.20;3.90;;;29.10;1.00;;;;;;5133163;28;20425;-59
2023/06/07 11:18:09;;;;;;;5.03;4.63;;;29.20;1.00;;;;;;5134986;28;20186;-59
2023/06/07 11:20:43;;;;;;;4.90;4.50;;;29.30;1.00;;;;;;5132883;28;20227;-57
2023/06/07 11:23:25;;;;;;;4.80;4.40;;;29.50;1.00;;;;;;5134796;28;20443;-59
2023/06/07 11:25:54;;;;;;;4.30;3.90;;;30.10;1.00;;;;;;5135538;28;20452;-59
2023/06/07 11:28:33;;;;;;;5.23;4.63;;;30.50;1.00;;;;;;5134538;27;20420;-60
2023/06/07 11:31:00;;;;;;;4.97;4.47;;;31.00;1.00;;;;;;5134346;28;20540;-60
2023/06/07 11:33:27;;;;;;;4.37;3.97;;;31.60;1.00;;;;;;5133924;28;20464;-54
2023/06/07 11:35:53;;;;;;;4.70;4.23;;;31.80;1.00;;;;;;5134641;28;20416;-56
2023/06/07 11:38:20;;;;;;;4.60;4.20;;;32.40;1.00;;;;;;5136035;28;20436;-57
2023/06/07 11:40:46;;;;;;;5.83;5.33;;;32.30;1.00;;;;;;5134716;28;20452;-57
2023/06/07 11:43:13;;;;;;;4.50;4.00;;;31.90;1.00;;;;;;5116432;28;20505;-55
2023/06/07 11:45:43;;;;;;;4.57;4.17;;;31.40;1.00;;;;;;5134449;27;20512;-57
2023/06/07 11:48:09;;;;;;;4.40;4.00;;;31.40;1.00;;;;;;5139113;27;20421;-57
2023/06/07 11:50:39;;;;;;;4.70;4.30;;;31.90;1.00;;;;;;5138536;27;20460;-56
2023/06/07 11:53:08;;;;;;;3.83;3.53;;;32.00;1.00;;;;;;5137746;27;20467;-54
2023/06/07 11:55:34;;;;;;;5.53;3.30;;;32.40;1.00;;;;;;5139378;27;20420;-54
2023/06/07 11:58:02;;;;;;;3.27;3.03;;;32.90;1.00;;;;;;5139144;27;20642;-57
2023/06/07 12:00:30;;;;;;;3.17;2.87;;;33.50;1.00;;;;;;5119392;27;20512;-60
2023/06/07 12:02:56;;;;;;;3.27;3.07;;;33.80;1.00;;;;;;5138380;27;20494;-55
2023/06/07 12:05:30;;;;;;;4.03;3.73;;;33.80;1.00;;;;;;5138404;27;20416;-57
2023/06/07 12:08:05;;;;;;;4.30;3.90;;;33.60;1.00;;;;;;5120605;27;20407;-57
2023/06/07 12:10:32;;;;;;;4.27;3.50;;;33.50;1.00;;;;;;5121814;27;20403;-59
2023/06/07 12:13:13;;;;;;;4.10;3.80;;;32.90;1.00;;;;;;5139991;27;20403;-57
2023/06/07 12:15:42;;;;;;;4.33;3.93;;;32.50;1.00;;;;;;5139132;27;20423;-55
2023/06/07 12:18:16;;;;;;;4.07;3.77;;;32.40;1.00;;;;;;5137570;27;20435;-54
2023/06/07 12:20:45;;;;;;;3.90;3.60;;;32.40;1.00;;;;;;5119486;27;20412;-59
2023/06/07 12:23:12;;;;;;;3.47;3.27;;;32.10;1.00;;;;;;5139081;27;20405;-55
2023/06/07 12:25:39;;;;;;;4.10;3.80;;;31.60;1.00;;;;;;5137625;27;20407;-56
2023/06/07 12:28:06;;;;;;;4.03;3.67;;;31.00;1.00;;;;;;5119174;27;21013;-56
2023/06/07 12:30:37;;;;;;;4.47;4.07;;;30.80;1.00;;;;;;5137659;27;20716;-56
2023/06/07 12:33:03;;;;;;;4.23;3.83;;;30.70;1.00;;;;;;5139307;27;20412;-55
2023/06/07 12:35:39;;;;;;;4.43;4.03;;;30.40;1.00;;;;;;5138838;27;20425;-47
2023/06/07 12:38:06;;;;;;;3.40;3.10;;;30.70;1.00;;;;;;5120112;27;20705;-54
2023/06/07 12:40:32;;;;;;;3.63;3.33;;;31.20;1.00;;;;;;5139118;27;20841;-55
2023/06/07 12:42:58;;;;;;;3.67;3.37;;;31.70;1.00;;;;;;5138260;27;20435;-56
2023/06/07 12:45:24;;;;;;;3.40;3.20;;;32.40;1.00;;;;;;5118766;27;20535;-54
2023/06/07 12:47:49;;;;;;;3.10;2.90;;;32.60;1.00;;;;;;5137478;27;20508;-53
2023/06/07 12:50:15;;;;;;;3.27;3.07;;;32.90;1.00;;;;;;5137777;27;20784;-56
2023/06/07 12:52:42;;;;;;;3.53;3.23;;;33.00;1.00;;;;;;5137458;27;20210;-55